sensor_id;sensor_type;location;lat;lon;timestamp;P1;durP1;ratioP1;P2;durP2;ratioP2
10894;SDS011;5500;49.886;8.074;2023-08-06T00:00:55;3.13;;;2.60;;
10894;SDS011;5500;49.886;8.074;2023-08-06T00:03:23;5.03;;;2.60;;
10894;SDS011;5500;49.886;8.074;2023-08-06T00:05:51;2.50;;;2.00;;
10894;SDS011;5500;49.886;8.074;2023-08-06T00:08:19;2.87;;;2.20;;
10894;SDS011;5500;49.886;8.074;2023-08-06T00:10:47;7.27;;;2.53;;
10894;SDS011;5500;49.886;8.074;2023-08-06T00:13:15;2.90;;;2.20;;
10894;SDS011;5500;49.886;8.074;2023-08-06T00:15:44;3.33;;;2.30;;
10894;SDS011;5500;49.886;8.074;2023-08-06T00:18:11;2.97;;;2.30;;
10894;SDS011;5500;49.886;8.074;2023-08-06T00:20:39;2.33;;;2.00;;
10894;SDS011;5500;49.886;8.074;2023-08-06T00:23:07;4.33;;;2.50;;
10894;SDS011;5500;49.886;8.074;2023-08-06T00:25:36;2.87;;;2.13;;
10894;SDS011;5500;49.886;8.074;2023-08-06T00:28:03;2.87;;;2.43;;
10894;SDS011;5500;49.886;8.074;2023-08-06T00:30:31;4.70;;;2.37;;
10894;SDS011;5500;49.886;8.074;2023-08-06T00:33:00;2.43;;;2.23;;
10894;SDS011;5500;49.886;8.074;2023-08-06T00:35:28;5.50;;;2.57;;
10894;SDS011;5500;49.886;8.074;2023-08-06T00:37:57;4.07;;;2.60;;
10894;SDS011;5500;49.886;8.074;2023-08-06T00:40:25;2.70;;;2.50;;
10894;SDS011;5500;49.886;8.074;2023-08-06T00:42:54;3.80;;;2.30;;
10894;SDS011;5500;49.886;8.074;2023-08-06T00:45:22;4.27;;;2.57;;
10894;SDS011;5500;49.886;8.074;2023-08-06T00:47:50;2.50;;;2.20;;
10894;SDS011;5500;49.886;8.074;2023-08-06T00:50:19;3.10;;;2.40;;
10894;SDS011;5500;49.886;8.074;2023-08-06T00:52:48;3.30;;;2.30;;
10894;SDS011;5500;49.886;8.074;2023-08-06T00:55:16;2.20;;;2.00;;
10894;SDS011;5500;49.886;8.074;2023-08-06T00:57:44;4.97;;;2.47;;
10894;SDS011;5500;49.886;8.074;2023-08-06T01:00:12;3.90;;;2.50;;
10894;SDS011;5500;49.886;8.074;2023-08-06T01:02:40;3.93;;;2.10;;
10894;SDS011;5500;49.886;8.074;2023-08-06T01:05:08;3.10;;;2.20;;
10894;SDS011;5500;49.886;8.074;2023-08-06T01:07:40;2.30;;;2.03;;
10894;SDS011;5500;49.886;8.074;2023-08-06T01:10:19;2.80;;;2.00;;
10894;SDS011;5500;49.886;8.074;2023-08-06T01:12:55;2.43;;;2.23;;
10894;SDS011;5500;49.886;8.074;2023-08-06T01:15:31;4.17;;;2.10;;
10894;SDS011;5500;49.886;8.074;2023-08-06T01:18:01;3.23;;;2.90;;
10894;SDS011;5500;49.886;8.074;2023-08-06T01:20:30;2.40;;;2.20;;
10894;SDS011;5500;49.886;8.074;2023-08-06T01:22:58;2.67;;;2.40;;
10894;SDS011;5500;49.886;8.074;2023-08-06T01:25:27;3.17;;;2.50;;
10894;SDS011;5500;49.886;8.074;2023-08-06T01:27:58;2.70;;;2.27;;
10894;SDS011;5500;49.886;8.074;2023-08-06T01:30:30;2.80;;;2.17;;
10894;SDS011;5500;49.886;8.074;2023-08-06T01:33:03;3.40;;;2.23;;
10894;SDS011;5500;49.886;8.074;2023-08-06T01:35:33;3.80;;;2.30;;
10894;SDS011;5500;49.886;8.074;2023-08-06T01:38:02;3.00;;;1.93;;
10894;SDS011;5500;49.886;8.074;2023-08-06T01:40:30;4.93;;;2.50;;
10894;SDS011;5500;49.886;8.074;2023-08-06T01:42:58;4.70;;;1.83;;
10894;SDS011;5500;49.886;8.074;2023-08-06T01:45:26;3.50;;;2.27;;
10894;SDS011;5500;49.886;8.074;2023-08-06T01:47:54;2.30;;;2.10;;
10894;SDS011;5500;49.886;8.074;2023-08-06T01:50:22;2.87;;;2.20;;
10894;SDS011;5500;49.886;8.074;2023-08-06T01:52:51;3.10;;;2.20;;
10894;SDS011;5500;49.886;8.074;2023-08-06T01:55:19;2.47;;;2.23;;
10894;SDS011;5500;49.886;8.074;2023-08-06T01:57:46;3.70;;;2.30;;
10894;SDS011;5500;49.886;8.074;2023-08-06T02:00:14;3.53;;;2.10;;
10894;SDS011;5500;49.886;8.074;2023-08-06T02:02:42;4.00;;;2.37;;
10894;SDS011;5500;49.886;8.074;2023-08-06T02:05:10;5.73;;;2.40;;
10894;SDS011;5500;49.886;8.074;2023-08-06T02:07:38;4.27;;;2.20;;
10894;SDS011;5500;49.886;8.074;2023-08-06T02:10:07;3.90;;;2.30;;
10894;SDS011;5500;49.886;8.074;2023-08-06T02:12:35;3.20;;;1.67;;
10894;SDS011;5500;49.886;8.074;2023-08-06T02:15:03;4.70;;;2.17;;
10894;SDS011;5500;49.886;8.074;2023-08-06T02:17:32;3.30;;;1.90;;
10894;SDS011;5500;49.886;8.074;2023-08-06T02:19:59;3.80;;;2.17;;
10894;SDS011;5500;49.886;8.074;2023-08-06T02:22:27;3.60;;;2.30;;
10894;SDS011;5500;49.886;8.074;2023-08-06T02:24:55;3.43;;;2.30;;
10894;SDS011;5500;49.886;8.074;2023-08-06T02:27:24;3.37;;;2.23;;
10894;SDS011;5500;49.886;8.074;2023-08-06T02:29:52;4.53;;;2.47;;
10894;SDS011;5500;49.886;8.074;2023-08-06T02:32:20;4.03;;;2.30;;
10894;SDS011;5500;49.886;8.074;2023-08-06T02:34:48;3.40;;;2.43;;
10894;SDS011;5500;49.886;8.074;2023-08-06T02:37:15;4.90;;;2.57;;
10894;SDS011;5500;49.886;8.074;2023-08-06T02:39:43;4.67;;;2.13;;
10894;SDS011;5500;49.886;8.074;2023-08-06T02:42:11;3.10;;;2.33;;
10894;SDS011;5500;49.886;8.074;2023-08-06T02:44:40;2.67;;;1.90;;
10894;SDS011;5500;49.886;8.074;2023-08-06T02:47:08;4.60;;;2.17;;
10894;SDS011;5500;49.886;8.074;2023-08-06T02:49:36;4.20;;;2.23;;
10894;SDS011;5500;49.886;8.074;2023-08-06T02:52:04;2.17;;;2.00;;
10894;SDS011;5500;49.886;8.074;2023-08-06T02:54:32;3.07;;;1.90;;
10894;SDS011;5500;49.886;8.074;2023-08-06T02:57:00;2.77;;;2.00;;
10894;SDS011;5500;49.886;8.074;2023-08-06T02:59:28;2.30;;;1.73;;
10894;SDS011;5500;49.886;8.074;2023-08-06T03:01:57;4.40;;;2.10;;
10894;SDS011;5500;49.886;8.074;2023-08-06T03:04:24;4.93;;;2.03;;
10894;SDS011;5500;49.886;8.074;2023-08-06T03:06:52;5.87;;;2.30;;
10894;SDS011;5500;49.886;8.074;2023-08-06T03:09:20;3.10;;;1.97;;
10894;SDS011;5500;49.886;8.074;2023-08-06T03:11:48;4.17;;;1.90;;
10894;SDS011;5500;49.886;8.074;2023-08-06T03:14:16;4.40;;;2.17;;
10894;SDS011;5500;49.886;8.074;2023-08-06T03:16:44;4.10;;;2.00;;
10894;SDS011;5500;49.886;8.074;2023-08-06T03:19:13;5.80;;;2.30;;
10894;SDS011;5500;49.886;8.074;2023-08-06T03:21:41;6.90;;;1.87;;
10894;SDS011;5500;49.886;8.074;2023-08-06T03:24:09;2.33;;;1.77;;
10894;SDS011;5500;49.886;8.074;2023-08-06T03:26:36;4.57;;;2.30;;
10894;SDS011;5500;49.886;8.074;2023-08-06T03:29:04;1.97;;;1.73;;
10894;SDS011;5500;49.886;8.074;2023-08-06T03:31:32;4.40;;;2.30;;
10894;SDS011;5500;49.886;8.074;2023-08-06T03:34:00;6.07;;;2.23;;
10894;SDS011;5500;49.886;8.074;2023-08-06T03:36:29;7.17;;;2.50;;
10894;SDS011;5500;49.886;8.074;2023-08-06T03:38:57;5.23;;;1.90;;
10894;SDS011;5500;49.886;8.074;2023-08-06T03:41:24;5.00;;;2.47;;
10894;SDS011;5500;49.886;8.074;2023-08-06T03:43:52;6.10;;;2.10;;
10894;SDS011;5500;49.886;8.074;2023-08-06T03:46:20;7.10;;;2.50;;
10894;SDS011;5500;49.886;8.074;2023-08-06T03:48:47;4.23;;;2.07;;
10894;SDS011;5500;49.886;8.074;2023-08-06T03:51:15;3.33;;;1.80;;
10894;SDS011;5500;49.886;8.074;2023-08-06T03:53:44;6.47;;;2.17;;
10894;SDS011;5500;49.886;8.074;2023-08-06T03:56:12;3.20;;;1.77;;
10894;SDS011;5500;49.886;8.074;2023-08-06T03:58:40;5.43;;;1.80;;
10894;SDS011;5500;49.886;8.074;2023-08-06T04:01:07;5.20;;;1.80;;
10894;SDS011;5500;49.886;8.074;2023-08-06T04:03:35;2.77;;;1.60;;
10894;SDS011;5500;49.886;8.074;2023-08-06T04:06:03;2.20;;;1.40;;
10894;SDS011;5500;49.886;8.074;2023-08-06T04:08:31;3.47;;;1.73;;
10894;SDS011;5500;49.886;8.074;2023-08-06T04:11:00;8.23;;;1.90;;
10894;SDS011;5500;49.886;8.074;2023-08-06T04:13:28;3.43;;;1.87;;
10894;SDS011;5500;49.886;8.074;2023-08-06T04:16:00;4.47;;;1.70;;
10894;SDS011;5500;49.886;8.074;2023-08-06T04:18:28;3.33;;;1.67;;
10894;SDS011;5500;49.886;8.074;2023-08-06T04:20:56;3.80;;;1.57;;
10894;SDS011;5500;49.886;8.074;2023-08-06T04:23:23;2.13;;;1.23;;
10894;SDS011;5500;49.886;8.074;2023-08-06T04:25:51;2.33;;;1.50;;
10894;SDS011;5500;49.886;8.074;2023-08-06T04:28:20;3.40;;;1.50;;
10894;SDS011;5500;49.886;8.074;2023-08-06T04:30:48;3.07;;;1.57;;
10894;SDS011;5500;49.886;8.074;2023-08-06T04:33:16;2.40;;;1.20;;
10894;SDS011;5500;49.886;8.074;2023-08-06T04:35:44;2.57;;;1.20;;
10894;SDS011;5500;49.886;8.074;2023-08-06T04:38:12;4.03;;;1.30;;
10894;SDS011;5500;49.886;8.074;2023-08-06T04:40:40;2.00;;;1.10;;
10894;SDS011;5500;49.886;8.074;2023-08-06T04:43:08;1.80;;;1.20;;
10894;SDS011;5500;49.886;8.074;2023-08-06T04:45:37;2.43;;;1.30;;
10894;SDS011;5500;49.886;8.074;2023-08-06T04:48:05;2.13;;;1.37;;
10894;SDS011;5500;49.886;8.074;2023-08-06T04:50:32;2.23;;;0.90;;
10894;SDS011;5500;49.886;8.074;2023-08-06T04:53:00;2.87;;;0.90;;
10894;SDS011;5500;49.886;8.074;2023-08-06T04:55:28;1.23;;;0.70;;
10894;SDS011;5500;49.886;8.074;2023-08-06T04:57:55;2.10;;;0.77;;
10894;SDS011;5500;49.886;8.074;2023-08-06T05:00:23;3.03;;;1.00;;
10894;SDS011;5500;49.886;8.074;2023-08-06T05:02:52;2.70;;;1.00;;
10894;SDS011;5500;49.886;8.074;2023-08-06T05:05:20;0.90;;;0.77;;
10894;SDS011;5500;49.886;8.074;2023-08-06T05:07:48;2.10;;;0.90;;
10894;SDS011;5500;49.886;8.074;2023-08-06T05:10:17;1.57;;;0.80;;
10894;SDS011;5500;49.886;8.074;2023-08-06T05:12:44;0.70;;;0.70;;
10894;SDS011;5500;49.886;8.074;2023-08-06T05:15:12;1.43;;;0.90;;
10894;SDS011;5500;49.886;8.074;2023-08-06T05:17:40;0.60;;;0.60;;
10894;SDS011;5500;49.886;8.074;2023-08-06T05:20:10;2.63;;;0.80;;
10894;SDS011;5500;49.886;8.074;2023-08-06T05:22:38;1.43;;;0.93;;
10894;SDS011;5500;49.886;8.074;2023-08-06T05:25:06;3.23;;;0.90;;
10894;SDS011;5500;49.886;8.074;2023-08-06T05:27:34;0.70;;;0.70;;
10894;SDS011;5500;49.886;8.074;2023-08-06T05:30:02;1.50;;;0.70;;
10894;SDS011;5500;49.886;8.074;2023-08-06T05:32:30;1.73;;;1.10;;
10894;SDS011;5500;49.886;8.074;2023-08-06T05:34:58;0.97;;;0.70;;
10894;SDS011;5500;49.886;8.074;2023-08-06T05:37:27;0.70;;;0.70;;
10894;SDS011;5500;49.886;8.074;2023-08-06T05:39:55;0.73;;;0.47;;
10894;SDS011;5500;49.886;8.074;2023-08-06T05:42:22;1.10;;;0.90;;
10894;SDS011;5500;49.886;8.074;2023-08-06T05:44:50;0.60;;;0.60;;
10894;SDS011;5500;49.886;8.074;2023-08-06T05:47:18;1.03;;;0.73;;
10894;SDS011;5500;49.886;8.074;2023-08-06T05:49:46;2.67;;;0.73;;
10894;SDS011;5500;49.886;8.074;2023-08-06T05:52:14;0.77;;;0.77;;
10894;SDS011;5500;49.886;8.074;2023-08-06T05:54:43;1.30;;;0.63;;
10894;SDS011;5500;49.886;8.074;2023-08-06T05:57:11;1.13;;;1.00;;
10894;SDS011;5500;49.886;8.074;2023-08-06T05:59:39;0.80;;;0.80;;
10894;SDS011;5500;49.886;8.074;2023-08-06T06:02:07;1.20;;;0.60;;
10894;SDS011;5500;49.886;8.074;2023-08-06T06:04:35;0.70;;;0.70;;
10894;SDS011;5500;49.886;8.074;2023-08-06T06:07:03;1.43;;;1.00;;
10894;SDS011;5500;49.886;8.074;2023-08-06T06:09:31;0.80;;;0.80;;
10894;SDS011;5500;49.886;8.074;2023-08-06T06:12:00;0.73;;;0.70;;
10894;SDS011;5500;49.886;8.074;2023-08-06T06:14:28;0.70;;;0.63;;
10894;SDS011;5500;49.886;8.074;2023-08-06T06:16:55;2.70;;;1.00;;
10894;SDS011;5500;49.886;8.074;2023-08-06T06:19:23;1.53;;;1.10;;
10894;SDS011;5500;49.886;8.074;2023-08-06T06:21:54;1.13;;;0.80;;
10894;SDS011;5500;49.886;8.074;2023-08-06T06:24:24;1.17;;;0.90;;
10894;SDS011;5500;49.886;8.074;2023-08-06T06:26:51;0.80;;;0.80;;
10894;SDS011;5500;49.886;8.074;2023-08-06T06:29:20;1.80;;;0.97;;
10894;SDS011;5500;49.886;8.074;2023-08-06T06:31:48;0.70;;;0.63;;
10894;SDS011;5500;49.886;8.074;2023-08-06T06:34:16;0.80;;;0.80;;
10894;SDS011;5500;49.886;8.074;2023-08-06T06:36:44;1.20;;;1.07;;
10894;SDS011;5500;49.886;8.074;2023-08-06T06:39:11;0.97;;;0.90;;
10894;SDS011;5500;49.886;8.074;2023-08-06T06:41:39;0.77;;;0.70;;
10894;SDS011;5500;49.886;8.074;2023-08-06T06:44:07;0.73;;;0.73;;
10894;SDS011;5500;49.886;8.074;2023-08-06T06:46:36;4.53;;;0.70;;
10894;SDS011;5500;49.886;8.074;2023-08-06T06:49:04;1.10;;;0.80;;
10894;SDS011;5500;49.886;8.074;2023-08-06T06:51:31;0.87;;;0.77;;
10894;SDS011;5500;49.886;8.074;2023-08-06T06:53:59;1.07;;;0.70;;
10894;SDS011;5500;49.886;8.074;2023-08-06T06:56:27;1.13;;;0.60;;
10894;SDS011;5500;49.886;8.074;2023-08-06T06:58:54;0.60;;;0.60;;
10894;SDS011;5500;49.886;8.074;2023-08-06T07:01:22;1.93;;;0.53;;
10894;SDS011;5500;49.886;8.074;2023-08-06T07:03:51;0.83;;;0.60;;
10894;SDS011;5500;49.886;8.074;2023-08-06T07:06:19;1.57;;;0.90;;
10894;SDS011;5500;49.886;8.074;2023-08-06T07:08:47;1.40;;;0.50;;
10894;SDS011;5500;49.886;8.074;2023-08-06T07:11:14;1.43;;;0.60;;
10894;SDS011;5500;49.886;8.074;2023-08-06T07:13:42;1.07;;;0.50;;
10894;SDS011;5500;49.886;8.074;2023-08-06T07:16:10;0.70;;;0.60;;
10894;SDS011;5500;49.886;8.074;2023-08-06T07:18:38;0.60;;;0.60;;
10894;SDS011;5500;49.886;8.074;2023-08-06T07:21:07;0.57;;;0.50;;
10894;SDS011;5500;49.886;8.074;2023-08-06T07:23:35;0.47;;;0.47;;
10894;SDS011;5500;49.886;8.074;2023-08-06T07:26:02;0.43;;;0.43;;
10894;SDS011;5500;49.886;8.074;2023-08-06T07:28:30;2.80;;;0.90;;
10894;SDS011;5500;49.886;8.074;2023-08-06T07:30:58;1.50;;;0.80;;
10894;SDS011;5500;49.886;8.074;2023-08-06T07:33:26;0.93;;;0.70;;
10894;SDS011;5500;49.886;8.074;2023-08-06T07:35:54;0.40;;;0.40;;
10894;SDS011;5500;49.886;8.074;2023-08-06T07:38:23;0.83;;;0.70;;
10894;SDS011;5500;49.886;8.074;2023-08-06T07:40:51;1.10;;;0.47;;
10894;SDS011;5500;49.886;8.074;2023-08-06T07:43:18;1.13;;;0.40;;
10894;SDS011;5500;49.886;8.074;2023-08-06T07:45:46;0.40;;;0.40;;
10894;SDS011;5500;49.886;8.074;2023-08-06T07:48:14;0.50;;;0.50;;
10894;SDS011;5500;49.886;8.074;2023-08-06T07:50:42;1.20;;;0.80;;
10894;SDS011;5500;49.886;8.074;2023-08-06T07:53:16;0.40;;;0.40;;
10894;SDS011;5500;49.886;8.074;2023-08-06T07:55:48;2.60;;;0.57;;
10894;SDS011;5500;49.886;8.074;2023-08-06T07:58:17;0.83;;;0.60;;
10894;SDS011;5500;49.886;8.074;2023-08-06T08:00:45;1.10;;;0.70;;
10894;SDS011;5500;49.886;8.074;2023-08-06T08:03:14;1.40;;;0.70;;
10894;SDS011;5500;49.886;8.074;2023-08-06T08:05:42;0.37;;;0.37;;
10894;SDS011;5500;49.886;8.074;2023-08-06T08:08:11;2.00;;;0.50;;
10894;SDS011;5500;49.886;8.074;2023-08-06T08:10:38;0.67;;;0.67;;
10894;SDS011;5500;49.886;8.074;2023-08-06T08:13:07;0.70;;;0.40;;
10894;SDS011;5500;49.886;8.074;2023-08-06T08:15:36;1.07;;;0.60;;
10894;SDS011;5500;49.886;8.074;2023-08-06T08:18:04;1.60;;;0.47;;
10894;SDS011;5500;49.886;8.074;2023-08-06T08:20:32;0.50;;;0.50;;
10894;SDS011;5500;49.886;8.074;2023-08-06T08:23:01;0.60;;;0.60;;
10894;SDS011;5500;49.886;8.074;2023-08-06T08:25:29;0.40;;;0.40;;
10894;SDS011;5500;49.886;8.074;2023-08-06T08:27:58;0.40;;;0.40;;
10894;SDS011;5500;49.886;8.074;2023-08-06T08:30:27;0.83;;;0.50;;
10894;SDS011;5500;49.886;8.074;2023-08-06T08:32:55;0.60;;;0.37;;
10894;SDS011;5500;49.886;8.074;2023-08-06T08:35:22;1.73;;;0.60;;
10894;SDS011;5500;49.886;8.074;2023-08-06T08:37:50;1.80;;;0.57;;
10894;SDS011;5500;49.886;8.074;2023-08-06T08:40:18;0.73;;;0.40;;
10894;SDS011;5500;49.886;8.074;2023-08-06T08:42:47;0.93;;;0.50;;
10894;SDS011;5500;49.886;8.074;2023-08-06T08:45:15;0.47;;;0.47;;
10894;SDS011;5500;49.886;8.074;2023-08-06T08:47:44;0.30;;;0.30;;
10894;SDS011;5500;49.886;8.074;2023-08-06T08:50:13;0.50;;;0.50;;
10894;SDS011;5500;49.886;8.074;2023-08-06T08:52:41;1.50;;;0.63;;
10894;SDS011;5500;49.886;8.074;2023-08-06T08:55:12;1.10;;;0.40;;
10894;SDS011;5500;49.886;8.074;2023-08-06T08:57:42;0.50;;;0.50;;
10894;SDS011;5500;49.886;8.074;2023-08-06T09:00:10;0.50;;;0.50;;
10894;SDS011;5500;49.886;8.074;2023-08-06T09:02:38;0.70;;;0.50;;
10894;SDS011;5500;49.886;8.074;2023-08-06T09:05:08;0.53;;;0.40;;
10894;SDS011;5500;49.886;8.074;2023-08-06T09:07:38;0.63;;;0.43;;
10894;SDS011;5500;49.886;8.074;2023-08-06T09:10:10;0.37;;;0.37;;
10894;SDS011;5500;49.886;8.074;2023-08-06T09:12:39;0.80;;;0.57;;
10894;SDS011;5500;49.886;8.074;2023-08-06T09:15:07;1.30;;;0.40;;
10894;SDS011;5500;49.886;8.074;2023-08-06T09:17:35;0.50;;;0.30;;
10894;SDS011;5500;49.886;8.074;2023-08-06T09:20:14;0.53;;;0.47;;
10894;SDS011;5500;49.886;8.074;2023-08-06T09:22:43;0.30;;;0.30;;
10894;SDS011;5500;49.886;8.074;2023-08-06T09:25:11;0.27;;;0.27;;
10894;SDS011;5500;49.886;8.074;2023-08-06T09:27:40;0.60;;;0.40;;
10894;SDS011;5500;49.886;8.074;2023-08-06T09:30:08;2.87;;;0.20;;
10894;SDS011;5500;49.886;8.074;2023-08-06T09:32:44;0.67;;;0.17;;
10894;SDS011;5500;49.886;8.074;2023-08-06T09:35:16;2.97;;;0.50;;
10894;SDS011;5500;49.886;8.074;2023-08-06T09:37:44;0.40;;;0.40;;
10894;SDS011;5500;49.886;8.074;2023-08-06T09:40:24;3.20;;;0.47;;
10894;SDS011;5500;49.886;8.074;2023-08-06T09:42:53;3.10;;;0.50;;
10894;SDS011;5500;49.886;8.074;2023-08-06T09:45:21;0.40;;;0.40;;
10894;SDS011;5500;49.886;8.074;2023-08-06T09:47:49;0.30;;;0.30;;
10894;SDS011;5500;49.886;8.074;2023-08-06T09:50:19;1.40;;;0.50;;
10894;SDS011;5500;49.886;8.074;2023-08-06T09:52:47;0.40;;;0.30;;
10894;SDS011;5500;49.886;8.074;2023-08-06T09:55:15;1.40;;;0.30;;
10894;SDS011;5500;49.886;8.074;2023-08-06T09:57:43;0.40;;;0.30;;
10894;SDS011;5500;49.886;8.074;2023-08-06T10:00:11;0.20;;;0.20;;
10894;SDS011;5500;49.886;8.074;2023-08-06T10:02:39;0.27;;;0.27;;
10894;SDS011;5500;49.886;8.074;2023-08-06T10:05:08;0.30;;;0.30;;
10894;SDS011;5500;49.886;8.074;2023-08-06T10:07:38;1.07;;;0.30;;
10894;SDS011;5500;49.886;8.074;2023-08-06T10:10:07;0.10;;;0.10;;
10894;SDS011;5500;49.886;8.074;2023-08-06T10:12:35;0.60;;;0.23;;
10894;SDS011;5500;49.886;8.074;2023-08-06T10:15:07;0.20;;;0.20;;
10894;SDS011;5500;49.886;8.074;2023-08-06T10:17:37;0.20;;;0.20;;
10894;SDS011;5500;49.886;8.074;2023-08-06T10:20:16;3.83;;;0.40;;
10894;SDS011;5500;49.886;8.074;2023-08-06T10:22:46;1.23;;;0.27;;
10894;SDS011;5500;49.886;8.074;2023-08-06T10:25:29;0.73;;;0.17;;
10894;SDS011;5500;49.886;8.074;2023-08-06T10:27:58;0.80;;;0.20;;
10894;SDS011;5500;49.886;8.074;2023-08-06T10:30:26;0.10;;;0.10;;
10894;SDS011;5500;49.886;8.074;2023-08-06T10:32:55;0.00;;;0.00;;
10894;SDS011;5500;49.886;8.074;2023-08-06T10:35:30;0.27;;;0.10;;
10894;SDS011;5500;49.886;8.074;2023-08-06T10:38:00;0.63;;;0.10;;
10894;SDS011;5500;49.886;8.074;2023-08-06T10:40:31;1.17;;;0.20;;
10894;SDS011;5500;49.886;8.074;2023-08-06T10:42:59;0.20;;;0.10;;
10894;SDS011;5500;49.886;8.074;2023-08-06T10:45:27;0.13;;;0.13;;
10894;SDS011;5500;49.886;8.074;2023-08-06T10:47:57;0.00;;;0.00;;
10894;SDS011;5500;49.886;8.074;2023-08-06T10:50:24;0.83;;;0.17;;
10894;SDS011;5500;49.886;8.074;2023-08-06T10:52:53;1.27;;;0.10;;
10894;SDS011;5500;49.886;8.074;2023-08-06T10:55:26;0.20;;;0.20;;
10894;SDS011;5500;49.886;8.074;2023-08-06T10:57:55;0.60;;;0.17;;
10894;SDS011;5500;49.886;8.074;2023-08-06T11:00:23;1.20;;;0.63;;
10894;SDS011;5500;49.886;8.074;2023-08-06T11:02:51;0.20;;;0.20;;
10894;SDS011;5500;49.886;8.074;2023-08-06T11:05:20;0.50;;;0.30;;
10894;SDS011;5500;49.886;8.074;2023-08-06T11:07:48;0.80;;;0.20;;
10894;SDS011;5500;49.886;8.074;2023-08-06T11:10:17;1.63;;;0.47;;
10894;SDS011;5500;49.886;8.074;2023-08-06T11:12:46;0.37;;;0.37;;
10894;SDS011;5500;49.886;8.074;2023-08-06T11:15:14;0.33;;;0.33;;
10894;SDS011;5500;49.886;8.074;2023-08-06T11:17:42;0.60;;;0.20;;
10894;SDS011;5500;49.886;8.074;2023-08-06T11:20:09;0.40;;;0.40;;
10894;SDS011;5500;49.886;8.074;2023-08-06T11:22:39;0.73;;;0.60;;
10894;SDS011;5500;49.886;8.074;2023-08-06T11:25:07;0.63;;;0.30;;
10894;SDS011;5500;49.886;8.074;2023-08-06T11:27:35;1.20;;;0.50;;
10894;SDS011;5500;49.886;8.074;2023-08-06T11:30:04;0.87;;;0.60;;
10894;SDS011;5500;49.886;8.074;2023-08-06T11:32:33;0.60;;;0.60;;
10894;SDS011;5500;49.886;8.074;2023-08-06T11:35:09;0.83;;;0.50;;
10894;SDS011;5500;49.886;8.074;2023-08-06T11:37:37;1.03;;;0.50;;
10894;SDS011;5500;49.886;8.074;2023-08-06T11:40:08;0.50;;;0.40;;
10894;SDS011;5500;49.886;8.074;2023-08-06T11:42:37;0.73;;;0.67;;
10894;SDS011;5500;49.886;8.074;2023-08-06T11:45:07;1.70;;;0.50;;
10894;SDS011;5500;49.886;8.074;2023-08-06T11:47:37;0.70;;;0.50;;
10894;SDS011;5500;49.886;8.074;2023-08-06T11:50:06;0.67;;;0.53;;
10894;SDS011;5500;49.886;8.074;2023-08-06T11:52:34;0.90;;;0.40;;
10894;SDS011;5500;49.886;8.074;2023-08-06T11:55:02;0.60;;;0.60;;
10894;SDS011;5500;49.886;8.074;2023-08-06T11:57:32;1.90;;;0.43;;
10894;SDS011;5500;49.886;8.074;2023-08-06T12:00:02;0.93;;;0.50;;
10894;SDS011;5500;49.886;8.074;2023-08-06T12:02:32;1.13;;;0.57;;
10894;SDS011;5500;49.886;8.074;2023-08-06T12:05:04;1.37;;;0.60;;
10894;SDS011;5500;49.886;8.074;2023-08-06T12:07:32;0.70;;;0.70;;
10894;SDS011;5500;49.886;8.074;2023-08-06T12:10:05;0.70;;;0.70;;
10894;SDS011;5500;49.886;8.074;2023-08-06T12:12:33;0.93;;;0.67;;
10894;SDS011;5500;49.886;8.074;2023-08-06T12:15:01;1.33;;;0.70;;
10894;SDS011;5500;49.886;8.074;2023-08-06T12:17:29;0.67;;;0.67;;
10894;SDS011;5500;49.886;8.074;2023-08-06T12:19:58;1.00;;;0.70;;
10894;SDS011;5500;49.886;8.074;2023-08-06T12:22:26;0.83;;;0.80;;
10894;SDS011;5500;49.886;8.074;2023-08-06T12:24:54;0.57;;;0.53;;
10894;SDS011;5500;49.886;8.074;2023-08-06T12:27:22;3.30;;;0.63;;
10894;SDS011;5500;49.886;8.074;2023-08-06T12:29:49;0.93;;;0.80;;
10894;SDS011;5500;49.886;8.074;2023-08-06T12:32:17;0.60;;;0.60;;
10894;SDS011;5500;49.886;8.074;2023-08-06T12:34:45;1.73;;;0.90;;
10894;SDS011;5500;49.886;8.074;2023-08-06T12:37:20;0.70;;;0.70;;
10894;SDS011;5500;49.886;8.074;2023-08-06T12:39:47;2.10;;;0.90;;
10894;SDS011;5500;49.886;8.074;2023-08-06T12:42:15;1.03;;;0.70;;
10894;SDS011;5500;49.886;8.074;2023-08-06T12:44:42;1.50;;;0.80;;
10894;SDS011;5500;49.886;8.074;2023-08-06T12:47:10;1.03;;;0.70;;
10894;SDS011;5500;49.886;8.074;2023-08-06T12:49:38;1.43;;;0.60;;
10894;SDS011;5500;49.886;8.074;2023-08-06T12:52:05;0.60;;;0.60;;
10894;SDS011;5500;49.886;8.074;2023-08-06T12:54:36;1.57;;;0.80;;
10894;SDS011;5500;49.886;8.074;2023-08-06T12:57:04;2.43;;;0.70;;
10894;SDS011;5500;49.886;8.074;2023-08-06T12:59:32;1.10;;;0.60;;
10894;SDS011;5500;49.886;8.074;2023-08-06T13:02:03;0.73;;;0.60;;
10894;SDS011;5500;49.886;8.074;2023-08-06T13:04:31;4.60;;;0.67;;
10894;SDS011;5500;49.886;8.074;2023-08-06T13:07:00;0.40;;;0.40;;
10894;SDS011;5500;49.886;8.074;2023-08-06T13:09:28;1.43;;;0.83;;
10894;SDS011;5500;49.886;8.074;2023-08-06T13:12:00;0.93;;;0.50;;
10894;SDS011;5500;49.886;8.074;2023-08-06T13:14:31;0.97;;;0.60;;
10894;SDS011;5500;49.886;8.074;2023-08-06T13:16:59;0.73;;;0.57;;
10894;SDS011;5500;49.886;8.074;2023-08-06T13:19:27;1.63;;;0.60;;
10894;SDS011;5500;49.886;8.074;2023-08-06T13:21:59;0.80;;;0.60;;
10894;SDS011;5500;49.886;8.074;2023-08-06T13:24:29;0.70;;;0.40;;
10894;SDS011;5500;49.886;8.074;2023-08-06T13:26:57;0.50;;;0.50;;
10894;SDS011;5500;49.886;8.074;2023-08-06T13:29:26;1.47;;;0.47;;
10894;SDS011;5500;49.886;8.074;2023-08-06T13:31:54;0.50;;;0.43;;
10894;SDS011;5500;49.886;8.074;2023-08-06T13:34:22;0.43;;;0.43;;
10894;SDS011;5500;49.886;8.074;2023-08-06T13:36:49;1.50;;;0.80;;
10894;SDS011;5500;49.886;8.074;2023-08-06T13:39:17;2.07;;;0.70;;
10894;SDS011;5500;49.886;8.074;2023-08-06T13:41:46;0.40;;;0.40;;
10894;SDS011;5500;49.886;8.074;2023-08-06T13:44:13;0.87;;;0.43;;
10894;SDS011;5500;49.886;8.074;2023-08-06T13:46:43;0.83;;;0.60;;
10894;SDS011;5500;49.886;8.074;2023-08-06T13:49:10;1.10;;;0.57;;
10894;SDS011;5500;49.886;8.074;2023-08-06T13:51:38;1.40;;;0.33;;
10894;SDS011;5500;49.886;8.074;2023-08-06T13:54:05;0.80;;;0.60;;
10894;SDS011;5500;49.886;8.074;2023-08-06T13:56:34;1.67;;;0.63;;
10894;SDS011;5500;49.886;8.074;2023-08-06T13:59:03;0.50;;;0.50;;
10894;SDS011;5500;49.886;8.074;2023-08-06T14:01:32;1.43;;;0.60;;
10894;SDS011;5500;49.886;8.074;2023-08-06T14:04:18;0.97;;;0.50;;
10894;SDS011;5500;49.886;8.074;2023-08-06T14:06:47;2.33;;;0.60;;
10894;SDS011;5500;49.886;8.074;2023-08-06T14:09:15;0.40;;;0.40;;
10894;SDS011;5500;49.886;8.074;2023-08-06T14:11:45;0.50;;;0.40;;
10894;SDS011;5500;49.886;8.074;2023-08-06T14:14:12;1.17;;;0.50;;
10894;SDS011;5500;49.886;8.074;2023-08-06T14:16:40;0.70;;;0.40;;
10894;SDS011;5500;49.886;8.074;2023-08-06T14:19:08;0.50;;;0.50;;
10894;SDS011;5500;49.886;8.074;2023-08-06T14:21:37;0.60;;;0.40;;
10894;SDS011;5500;49.886;8.074;2023-08-06T14:24:05;0.60;;;0.60;;
10894;SDS011;5500;49.886;8.074;2023-08-06T14:26:33;0.70;;;0.40;;
10894;SDS011;5500;49.886;8.074;2023-08-06T14:29:00;0.40;;;0.37;;
10894;SDS011;5500;49.886;8.074;2023-08-06T14:31:28;0.77;;;0.40;;
10894;SDS011;5500;49.886;8.074;2023-08-06T14:33:56;0.53;;;0.40;;
10894;SDS011;5500;49.886;8.074;2023-08-06T14:36:24;0.53;;;0.40;;
10894;SDS011;5500;49.886;8.074;2023-08-06T14:38:52;1.20;;;0.60;;
10894;SDS011;5500;49.886;8.074;2023-08-06T14:41:26;1.20;;;0.33;;
10894;SDS011;5500;49.886;8.074;2023-08-06T14:43:54;0.47;;;0.30;;
10894;SDS011;5500;49.886;8.074;2023-08-06T14:46:21;0.77;;;0.40;;
10894;SDS011;5500;49.886;8.074;2023-08-06T14:48:49;1.30;;;0.40;;
10894;SDS011;5500;49.886;8.074;2023-08-06T14:51:17;1.87;;;0.30;;
10894;SDS011;5500;49.886;8.074;2023-08-06T14:53:46;0.30;;;0.30;;
10894;SDS011;5500;49.886;8.074;2023-08-06T14:56:15;0.30;;;0.30;;
10894;SDS011;5500;49.886;8.074;2023-08-06T14:58:43;1.63;;;0.30;;
10894;SDS011;5500;49.886;8.074;2023-08-06T15:01:11;0.30;;;0.30;;
10894;SDS011;5500;49.886;8.074;2023-08-06T15:03:39;0.40;;;0.13;;
10894;SDS011;5500;49.886;8.074;2023-08-06T15:06:07;2.00;;;0.30;;
10894;SDS011;5500;49.886;8.074;2023-08-06T15:08:35;1.40;;;0.13;;